sensor_id;sensor_type;location;lat;lon;timestamp;P1;durP1;ratioP1;P2;durP2;ratioP2
71435;SDS011;59251;51.326;12.370;2023-05-17T00:01:22;7.32;;;0.80;;
71435;SDS011;59251;51.326;12.370;2023-05-17T00:03:47;6.30;;;0.80;;
71435;SDS011;59251;51.326;12.370;2023-05-17T00:06:12;5.87;;;0.83;;
71435;SDS011;59251;51.326;12.370;2023-05-17T00:08:38;8.87;;;1.07;;
71435;SDS011;59251;51.326;12.370;2023-05-17T00:11:03;8.60;;;0.90;;
71435;SDS011;59251;51.326;12.370;2023-05-17T00:13:28;7.00;;;0.90;;
71435;SDS011;59251;51.326;12.370;2023-05-17T00:15:54;5.40;;;1.10;;
71435;SDS011;59251;51.326;12.370;2023-05-17T00:18:19;6.72;;;0.88;;
71435;SDS011;59251;51.326;12.370;2023-05-17T00:20:44;7.27;;;0.80;;
71435;SDS011;59251;51.326;12.370;2023-05-17T00:23:10;4.87;;;0.80;;
71435;SDS011;59251;51.326;12.370;2023-05-17T00:25:35;6.73;;;1.20;;
71435;SDS011;59251;51.326;12.370;2023-05-17T00:28:00;7.30;;;1.20;;
71435;SDS011;59251;51.326;12.370;2023-05-17T00:30:26;5.93;;;1.10;;
71435;SDS011;59251;51.326;12.370;2023-05-17T00:32:51;6.70;;;1.10;;
71435;SDS011;59251;51.326;12.370;2023-05-17T00:35:16;7.50;;;1.33;;
71435;SDS011;59251;51.326;12.370;2023-05-17T00:37:42;7.60;;;0.93;;
71435;SDS011;59251;51.326;12.370;2023-05-17T00:40:11;7.40;;;1.08;;
71435;SDS011;59251;51.326;12.370;2023-05-17T00:42:38;7.57;;;0.95;;
71435;SDS011;59251;51.326;12.370;2023-05-17T00:45:03;9.07;;;1.00;;
71435;SDS011;59251;51.326;12.370;2023-05-17T00:47:30;6.35;;;0.90;;
71435;SDS011;59251;51.326;12.370;2023-05-17T00:49:55;7.23;;;1.10;;
71435;SDS011;59251;51.326;12.370;2023-05-17T00:52:20;4.83;;;0.97;;
71435;SDS011;59251;51.326;12.370;2023-05-17T00:54:46;6.60;;;0.93;;
71435;SDS011;59251;51.326;12.370;2023-05-17T00:57:11;6.80;;;0.88;;
71435;SDS011;59251;51.326;12.370;2023-05-17T00:59:37;6.57;;;1.57;;
71435;SDS011;59251;51.326;12.370;2023-05-17T01:02:03;5.85;;;0.93;;
71435;SDS011;59251;51.326;12.370;2023-05-17T01:04:29;7.47;;;1.13;;
71435;SDS011;59251;51.326;12.370;2023-05-17T01:06:54;6.53;;;1.17;;
71435;SDS011;59251;51.326;12.370;2023-05-17T01:09:20;9.43;;;1.13;;
71435;SDS011;59251;51.326;12.370;2023-05-17T01:20:22;6.75;;;1.10;;
71435;SDS011;59251;51.326;12.370;2023-05-17T01:28:26;7.38;;;1.08;;
71435;SDS011;59251;51.326;12.370;2023-05-17T01:30:53;7.85;;;1.35;;
71435;SDS011;59251;51.326;12.370;2023-05-17T01:33:21;9.93;;;1.20;;
71435;SDS011;59251;51.326;12.370;2023-05-17T01:35:47;7.57;;;1.20;;
71435;SDS011;59251;51.326;12.370;2023-05-17T01:38:12;7.37;;;1.20;;
71435;SDS011;59251;51.326;12.370;2023-05-17T01:40:39;7.73;;;1.20;;
71435;SDS011;59251;51.326;12.370;2023-05-17T01:43:27;7.88;;;1.20;;
71435;SDS011;59251;51.326;12.370;2023-05-17T01:48:33;5.47;;;0.90;;
71435;SDS011;59251;51.326;12.370;2023-05-17T01:51:00;6.68;;;1.23;;
71435;SDS011;59251;51.326;12.370;2023-05-17T01:53:32;5.88;;;1.30;;
71435;SDS011;59251;51.326;12.370;2023-05-17T01:56:03;6.80;;;1.30;;
71435;SDS011;59251;51.326;12.370;2023-05-17T01:58:44;7.40;;;1.20;;
71435;SDS011;59251;51.326;12.370;2023-05-17T02:01:12;8.57;;;1.27;;
71435;SDS011;59251;51.326;12.370;2023-05-17T02:03:39;7.43;;;1.27;;
71435;SDS011;59251;51.326;12.370;2023-05-17T02:06:05;8.03;;;1.37;;
71435;SDS011;59251;51.326;12.370;2023-05-17T02:08:30;6.32;;;1.13;;
71435;SDS011;59251;51.326;12.370;2023-05-17T02:10:55;9.30;;;1.20;;
71435;SDS011;59251;51.326;12.370;2023-05-17T02:13:21;6.90;;;1.50;;
71435;SDS011;59251;51.326;12.370;2023-05-17T02:15:46;9.00;;;1.70;;
71435;SDS011;59251;51.326;12.370;2023-05-17T02:18:11;7.87;;;1.50;;
71435;SDS011;59251;51.326;12.370;2023-05-17T02:20:37;7.47;;;1.50;;
71435;SDS011;59251;51.326;12.370;2023-05-17T02:23:02;8.60;;;1.30;;
71435;SDS011;59251;51.326;12.370;2023-05-17T02:25:27;9.47;;;1.63;;
71435;SDS011;59251;51.326;12.370;2023-05-17T02:27:53;6.03;;;1.33;;
71435;SDS011;59251;51.326;12.370;2023-05-17T02:30:18;7.95;;;1.40;;
71435;SDS011;59251;51.326;12.370;2023-05-17T02:32:46;9.77;;;1.60;;
71435;SDS011;59251;51.326;12.370;2023-05-17T02:35:12;8.50;;;1.50;;
71435;SDS011;59251;51.326;12.370;2023-05-17T02:37:37;11.07;;;1.33;;
71435;SDS011;59251;51.326;12.370;2023-05-17T02:40:04;8.40;;;1.93;;
71435;SDS011;59251;51.326;12.370;2023-05-17T02:42:34;8.13;;;1.58;;
71435;SDS011;59251;51.326;12.370;2023-05-17T02:45:00;7.47;;;1.47;;
71435;SDS011;59251;51.326;12.370;2023-05-17T02:47:25;10.50;;;1.70;;
71435;SDS011;59251;51.326;12.370;2023-05-17T02:49:50;9.00;;;1.50;;
71435;SDS011;59251;51.326;12.370;2023-05-17T02:52:16;13.17;;;1.90;;
71435;SDS011;59251;51.326;12.370;2023-05-17T02:54:41;7.77;;;1.63;;
71435;SDS011;59251;51.326;12.370;2023-05-17T02:57:10;6.93;;;1.30;;
71435;SDS011;59251;51.326;12.370;2023-05-17T02:59:35;8.73;;;1.57;;
71435;SDS011;59251;51.326;12.370;2023-05-17T03:02:01;7.22;;;1.38;;
71435;SDS011;59251;51.326;12.370;2023-05-17T03:04:26;9.80;;;2.00;;
71435;SDS011;59251;51.326;12.370;2023-05-17T03:06:52;10.70;;;1.93;;
71435;SDS011;59251;51.326;12.370;2023-05-17T03:09:17;7.50;;;1.70;;
71435;SDS011;59251;51.326;12.370;2023-05-17T03:11:43;8.30;;;1.75;;
71435;SDS011;59251;51.326;12.370;2023-05-17T03:14:08;8.17;;;1.53;;
71435;SDS011;59251;51.326;12.370;2023-05-17T03:16:34;9.40;;;1.60;;
71435;SDS011;59251;51.326;12.370;2023-05-17T03:18:59;8.87;;;1.93;;
71435;SDS011;59251;51.326;12.370;2023-05-17T03:21:24;7.40;;;1.60;;
71435;SDS011;59251;51.326;12.370;2023-05-17T03:23:50;12.07;;;2.07;;
71435;SDS011;59251;51.326;12.370;2023-05-17T03:26:15;9.43;;;1.50;;
71435;SDS011;59251;51.326;12.370;2023-05-17T03:28:40;12.07;;;2.80;;
71435;SDS011;59251;51.326;12.370;2023-05-17T03:31:06;14.17;;;1.87;;
71435;SDS011;59251;51.326;12.370;2023-05-17T03:33:32;10.27;;;1.88;;
71435;SDS011;59251;51.326;12.370;2023-05-17T03:35:57;11.07;;;1.80;;
71435;SDS011;59251;51.326;12.370;2023-05-17T03:38:22;9.53;;;2.07;;
71435;SDS011;59251;51.326;12.370;2023-05-17T03:40:48;8.43;;;1.70;;
71435;SDS011;59251;51.326;12.370;2023-05-17T03:43:15;10.00;;;1.90;;
71435;SDS011;59251;51.326;12.370;2023-05-17T03:45:40;9.97;;;2.33;;
71435;SDS011;59251;51.326;12.370;2023-05-17T03:48:05;11.07;;;2.00;;
71435;SDS011;59251;51.326;12.370;2023-05-17T03:50:30;8.30;;;2.07;;
71435;SDS011;59251;51.326;12.370;2023-05-17T03:52:56;9.32;;;1.90;;
71435;SDS011;59251;51.326;12.370;2023-05-17T03:55:22;8.33;;;2.23;;
71435;SDS011;59251;51.326;12.370;2023-05-17T03:57:48;8.18;;;1.92;;
71435;SDS011;59251;51.326;12.370;2023-05-17T04:00:13;6.83;;;1.97;;
71435;SDS011;59251;51.326;12.370;2023-05-17T04:02:45;9.20;;;1.92;;
71435;SDS011;59251;51.326;12.370;2023-05-17T04:05:10;9.97;;;2.30;;
71435;SDS011;59251;51.326;12.370;2023-05-17T04:07:37;8.27;;;2.10;;
71435;SDS011;59251;51.326;12.370;2023-05-17T04:10:02;11.20;;;2.10;;
71435;SDS011;59251;51.326;12.370;2023-05-17T04:12:28;8.30;;;2.40;;
71435;SDS011;59251;51.326;12.370;2023-05-17T04:14:53;8.70;;;2.33;;
71435;SDS011;59251;51.326;12.370;2023-05-17T04:17:19;11.80;;;2.40;;
71435;SDS011;59251;51.326;12.370;2023-05-17T04:19:44;8.87;;;2.20;;
71435;SDS011;59251;51.326;12.370;2023-05-17T04:22:10;10.80;;;1.92;;
71435;SDS011;59251;51.326;12.370;2023-05-17T04:24:35;12.30;;;2.60;;
71435;SDS011;59251;51.326;12.370;2023-05-17T04:27:01;10.73;;;2.17;;
71435;SDS011;59251;51.326;12.370;2023-05-17T04:29:28;9.07;;;1.77;;
71435;SDS011;59251;51.326;12.370;2023-05-17T04:31:53;12.07;;;2.20;;
71435;SDS011;59251;51.326;12.370;2023-05-17T04:34:19;8.43;;;2.17;;
71435;SDS011;59251;51.326;12.370;2023-05-17T04:36:46;10.48;;;2.22;;
71435;SDS011;59251;51.326;12.370;2023-05-17T04:39:11;11.30;;;2.13;;
71435;SDS011;59251;51.326;12.370;2023-05-17T04:41:37;9.33;;;1.87;;
71435;SDS011;59251;51.326;12.370;2023-05-17T04:44:02;11.67;;;2.10;;
71435;SDS011;59251;51.326;12.370;2023-05-17T04:46:28;7.90;;;2.03;;
71435;SDS011;59251;51.326;12.370;2023-05-17T04:48:53;9.90;;;2.05;;
71435;SDS011;59251;51.326;12.370;2023-05-17T04:51:20;11.95;;;2.30;;
71435;SDS011;59251;51.326;12.370;2023-05-17T04:53:45;10.67;;;2.07;;
71435;SDS011;59251;51.326;12.370;2023-05-17T04:56:11;9.27;;;2.40;;
71435;SDS011;59251;51.326;12.370;2023-05-17T04:58:36;8.40;;;1.77;;
71435;SDS011;59251;51.326;12.370;2023-05-17T05:01:01;10.13;;;1.95;;
71435;SDS011;59251;51.326;12.370;2023-05-17T05:03:27;11.73;;;2.60;;
71435;SDS011;59251;51.326;12.370;2023-05-17T05:05:52;14.33;;;4.40;;
71435;SDS011;59251;51.326;12.370;2023-05-17T05:08:18;13.73;;;4.07;;
71435;SDS011;59251;51.326;12.370;2023-05-17T05:10:43;15.13;;;3.63;;
71435;SDS011;59251;51.326;12.370;2023-05-17T05:13:08;9.73;;;2.60;;
71435;SDS011;59251;51.326;12.370;2023-05-17T05:15:34;11.17;;;2.37;;
71435;SDS011;59251;51.326;12.370;2023-05-17T05:17:59;10.97;;;2.53;;
71435;SDS011;59251;51.326;12.370;2023-05-17T05:20:25;10.33;;;2.30;;
71435;SDS011;59251;51.326;12.370;2023-05-17T05:22:50;9.70;;;2.20;;
71435;SDS011;59251;51.326;12.370;2023-05-17T05:25:16;11.68;;;2.58;;
71435;SDS011;59251;51.326;12.370;2023-05-17T05:27:41;13.70;;;2.43;;
71435;SDS011;59251;51.326;12.370;2023-05-17T05:30:06;14.33;;;2.30;;
71435;SDS011;59251;51.326;12.370;2023-05-17T05:32:32;14.15;;;3.15;;
71435;SDS011;59251;51.326;12.370;2023-05-17T05:34:58;11.80;;;2.67;;
71435;SDS011;59251;51.326;12.370;2023-05-17T05:37:23;13.57;;;3.13;;
71435;SDS011;59251;51.326;12.370;2023-05-17T05:39:49;16.75;;;3.00;;
71435;SDS011;59251;51.326;12.370;2023-05-17T05:42:14;12.20;;;2.27;;
71435;SDS011;59251;51.326;12.370;2023-05-17T05:44:40;14.27;;;2.67;;
71435;SDS011;59251;51.326;12.370;2023-05-17T05:47:05;14.50;;;3.00;;
71435;SDS011;59251;51.326;12.370;2023-05-17T05:49:31;12.25;;;2.60;;
71435;SDS011;59251;51.326;12.370;2023-05-17T05:51:56;15.68;;;2.75;;
71435;SDS011;59251;51.326;12.370;2023-05-17T05:54:22;10.83;;;2.47;;
71435;SDS011;59251;51.326;12.370;2023-05-17T05:56:47;16.67;;;2.97;;
71435;SDS011;59251;51.326;12.370;2023-05-17T05:59:12;9.17;;;2.60;;
71435;SDS011;59251;51.326;12.370;2023-05-17T06:01:38;14.07;;;3.00;;
71435;SDS011;59251;51.326;12.370;2023-05-17T06:04:03;13.77;;;3.03;;
71435;SDS011;59251;51.326;12.370;2023-05-17T06:06:29;14.87;;;2.83;;
71435;SDS011;59251;51.326;12.370;2023-05-17T06:08:55;11.15;;;2.30;;
71435;SDS011;59251;51.326;12.370;2023-05-17T06:11:20;14.93;;;3.10;;
71435;SDS011;59251;51.326;12.370;2023-05-17T06:13:47;11.15;;;2.10;;
71435;SDS011;59251;51.326;12.370;2023-05-17T06:16:13;13.60;;;2.90;;
71435;SDS011;59251;51.326;12.370;2023-05-17T06:18:38;9.47;;;2.53;;
71435;SDS011;59251;51.326;12.370;2023-05-17T06:21:03;11.55;;;2.90;;
71435;SDS011;59251;51.326;12.370;2023-05-17T06:23:29;9.93;;;2.50;;
71435;SDS011;59251;51.326;12.370;2023-05-17T06:25:55;10.93;;;2.70;;
71435;SDS011;59251;51.326;12.370;2023-05-17T06:28:20;14.23;;;3.05;;
71435;SDS011;59251;51.326;12.370;2023-05-17T06:30:45;12.60;;;3.00;;
71435;SDS011;59251;51.326;12.370;2023-05-17T06:33:11;12.80;;;3.20;;
71435;SDS011;59251;51.326;12.370;2023-05-17T06:35:36;9.73;;;2.57;;
71435;SDS011;59251;51.326;12.370;2023-05-17T06:38:02;13.13;;;2.75;;
71435;SDS011;59251;51.326;12.370;2023-05-17T06:40:27;17.53;;;3.40;;
71435;SDS011;59251;51.326;12.370;2023-05-17T06:42:53;12.37;;;2.57;;
71435;SDS011;59251;51.326;12.370;2023-05-17T06:45:18;11.60;;;2.63;;
71435;SDS011;59251;51.326;12.370;2023-05-17T06:47:43;14.30;;;2.77;;
71435;SDS011;59251;51.326;12.370;2023-05-17T06:50:09;11.18;;;2.33;;
71435;SDS011;59251;51.326;12.370;2023-05-17T06:52:35;13.40;;;2.67;;
71435;SDS011;59251;51.326;12.370;2023-05-17T06:55:00;10.10;;;2.30;;
71435;SDS011;59251;51.326;12.370;2023-05-17T06:57:26;14.45;;;2.75;;
71435;SDS011;59251;51.326;12.370;2023-05-17T06:59:51;12.55;;;2.22;;
71435;SDS011;59251;51.326;12.370;2023-05-17T07:02:17;13.07;;;3.13;;
71435;SDS011;59251;51.326;12.370;2023-05-17T07:04:42;12.55;;;2.53;;
71435;SDS011;59251;51.326;12.370;2023-05-17T07:07:08;12.65;;;2.38;;
71435;SDS011;59251;51.326;12.370;2023-05-17T07:09:33;12.50;;;2.40;;
71435;SDS011;59251;51.326;12.370;2023-05-17T07:11:58;10.70;;;2.20;;
71435;SDS011;59251;51.326;12.370;2023-05-17T07:14:24;12.00;;;3.13;;
71435;SDS011;59251;51.326;12.370;2023-05-17T07:16:49;12.17;;;2.40;;
71435;SDS011;59251;51.326;12.370;2023-05-17T07:19:15;10.97;;;3.17;;
71435;SDS011;59251;51.326;12.370;2023-05-17T07:21:40;12.00;;;2.33;;
71435;SDS011;59251;51.326;12.370;2023-05-17T07:24:05;9.05;;;2.80;;
71435;SDS011;59251;51.326;12.370;2023-05-17T07:26:31;13.17;;;2.60;;
71435;SDS011;59251;51.326;12.370;2023-05-17T07:28:56;8.87;;;2.20;;
71435;SDS011;59251;51.326;12.370;2023-05-17T07:31:22;11.67;;;2.63;;
71435;SDS011;59251;51.326;12.370;2023-05-17T07:33:47;12.45;;;2.40;;
71435;SDS011;59251;51.326;12.370;2023-05-17T07:36:12;12.73;;;2.00;;
71435;SDS011;59251;51.326;12.370;2023-05-17T07:38:38;11.30;;;2.60;;
71435;SDS011;59251;51.326;12.370;2023-05-17T07:41:03;11.67;;;2.07;;
71435;SDS011;59251;51.326;12.370;2023-05-17T07:43:33;13.68;;;2.22;;
71435;SDS011;59251;51.326;12.370;2023-05-17T07:45:59;10.85;;;1.90;;
71435;SDS011;59251;51.326;12.370;2023-05-17T07:48:25;11.30;;;1.80;;
71435;SDS011;59251;51.326;12.370;2023-05-17T07:50:51;8.82;;;1.63;;
71435;SDS011;59251;51.326;12.370;2023-05-17T07:53:16;12.90;;;1.83;;
71435;SDS011;59251;51.326;12.370;2023-05-17T07:55:41;11.77;;;1.93;;
71435;SDS011;59251;51.326;12.370;2023-05-17T07:58:08;11.27;;;1.60;;
71435;SDS011;59251;51.326;12.370;2023-05-17T08:00:34;15.27;;;2.10;;
71435;SDS011;59251;51.326;12.370;2023-05-17T08:03:00;12.07;;;1.80;;
71435;SDS011;59251;51.326;12.370;2023-05-17T08:05:25;13.40;;;1.77;;
71435;SDS011;59251;51.326;12.370;2023-05-17T08:07:51;7.43;;;1.20;;
71435;SDS011;59251;51.326;12.370;2023-05-17T08:10:17;7.22;;;1.20;;
71435;SDS011;59251;51.326;12.370;2023-05-17T08:12:42;13.50;;;2.20;;
71435;SDS011;59251;51.326;12.370;2023-05-17T08:15:08;10.70;;;1.20;;
71435;SDS011;59251;51.326;12.370;2023-05-17T08:17:33;7.33;;;0.90;;
71435;SDS011;59251;51.326;12.370;2023-05-17T08:19:59;8.83;;;1.13;;
71435;SDS011;59251;51.326;12.370;2023-05-17T08:22:24;8.25;;;1.38;;
71435;SDS011;59251;51.326;12.370;2023-05-17T08:24:50;10.50;;;0.98;;
71435;SDS011;59251;51.326;12.370;2023-05-17T08:27:15;9.20;;;1.47;;
71435;SDS011;59251;51.326;12.370;2023-05-17T08:29:41;8.53;;;1.37;;
71435;SDS011;59251;51.326;12.370;2023-05-17T08:32:06;11.40;;;2.00;;
71435;SDS011;59251;51.326;12.370;2023-05-17T08:34:31;10.45;;;1.23;;
71435;SDS011;59251;51.326;12.370;2023-05-17T08:36:57;10.60;;;1.90;;
71435;SDS011;59251;51.326;12.370;2023-05-17T08:39:22;7.90;;;1.47;;
71435;SDS011;59251;51.326;12.370;2023-05-17T08:41:48;8.60;;;1.60;;
71435;SDS011;59251;51.326;12.370;2023-05-17T08:44:14;7.97;;;1.63;;
71435;SDS011;59251;51.326;12.370;2023-05-17T08:46:41;9.10;;;1.48;;
71435;SDS011;59251;51.326;12.370;2023-05-17T08:49:07;9.75;;;1.60;;
71435;SDS011;59251;51.326;12.370;2023-05-17T08:51:36;7.78;;;1.45;;
71435;SDS011;59251;51.326;12.370;2023-05-17T08:54:04;12.38;;;1.98;;
71435;SDS011;59251;51.326;12.370;2023-05-17T08:56:29;11.27;;;1.50;;
71435;SDS011;59251;51.326;12.370;2023-05-17T08:58:56;10.38;;;1.85;;
71435;SDS011;59251;51.326;12.370;2023-05-17T09:01:22;10.95;;;1.80;;
71435;SDS011;59251;51.326;12.370;2023-05-17T09:03:48;12.32;;;1.90;;
71435;SDS011;59251;51.326;12.370;2023-05-17T09:06:18;13.35;;;2.25;;
71435;SDS011;59251;51.326;12.370;2023-05-17T09:08:45;11.85;;;1.92;;
71435;SDS011;59251;51.326;12.370;2023-05-17T09:11:11;9.90;;;2.13;;
71435;SDS011;59251;51.326;12.370;2023-05-17T09:13:36;9.63;;;1.60;;
71435;SDS011;59251;51.326;12.370;2023-05-17T09:16:02;11.10;;;1.50;;
71435;SDS011;59251;51.326;12.370;2023-05-17T09:18:36;13.63;;;1.50;;
71435;SDS011;59251;51.326;12.370;2023-05-17T09:21:02;8.30;;;1.50;;
71435;SDS011;59251;51.326;12.370;2023-05-17T09:23:29;11.15;;;1.95;;
71435;SDS011;59251;51.326;12.370;2023-05-17T09:26:02;10.23;;;1.70;;
71435;SDS011;59251;51.326;12.370;2023-05-17T09:28:40;10.35;;;1.30;;
71435;SDS011;59251;51.326;12.370;2023-05-17T09:31:06;10.32;;;1.70;;
71435;SDS011;59251;51.326;12.370;2023-05-17T09:33:33;10.88;;;1.90;;
71435;SDS011;59251;51.326;12.370;2023-05-17T09:35:59;8.52;;;1.77;;
71435;SDS011;59251;51.326;12.370;2023-05-17T09:38:26;11.35;;;2.15;;
71435;SDS011;59251;51.326;12.370;2023-05-17T09:40:51;12.73;;;1.80;;
71435;SDS011;59251;51.326;12.370;2023-05-17T09:43:22;10.50;;;1.50;;
71435;SDS011;59251;51.326;12.370;2023-05-17T09:45:56;10.15;;;1.35;;
71435;SDS011;59251;51.326;12.370;2023-05-17T09:48:22;9.07;;;1.50;;
71435;SDS011;59251;51.326;12.370;2023-05-17T09:50:50;8.90;;;1.70;;
71435;SDS011;59251;51.326;12.370;2023-05-17T09:53:26;8.33;;;1.40;;
71435;SDS011;59251;51.326;12.370;2023-05-17T09:56:04;8.95;;;1.30;;
71435;SDS011;59251;51.326;12.370;2023-05-17T09:58:31;8.88;;;1.20;;
71435;SDS011;59251;51.326;12.370;2023-05-17T10:00:58;6.78;;;1.00;;
71435;SDS011;59251;51.326;12.370;2023-05-17T10:03:26;8.45;;;1.40;;
71435;SDS011;59251;51.326;12.370;2023-05-17T10:05:55;8.73;;;1.45;;
71435;SDS011;59251;51.326;12.370;2023-05-17T10:08:22;6.90;;;1.25;;
71435;SDS011;59251;51.326;12.370;2023-05-17T10:10:49;10.55;;;1.58;;
71435;SDS011;59251;51.326;12.370;2023-05-17T10:13:17;9.93;;;1.50;;
71435;SDS011;59251;51.326;12.370;2023-05-17T10:15:46;11.60;;;1.33;;
71435;SDS011;59251;51.326;12.370;2023-05-17T10:18:12;8.65;;;1.45;;
71435;SDS011;59251;51.326;12.370;2023-05-17T10:20:40;10.02;;;1.20;;
71435;SDS011;59251;51.326;12.370;2023-05-17T10:23:05;7.93;;;1.65;;
71435;SDS011;59251;51.326;12.370;2023-05-17T10:25:32;8.77;;;1.25;;
71435;SDS011;59251;51.326;12.370;2023-05-17T10:27:57;7.65;;;1.25;;
71435;SDS011;59251;51.326;12.370;2023-05-17T10:30:24;7.65;;;1.20;;
71435;SDS011;59251;51.326;12.370;2023-05-17T10:32:50;8.93;;;1.40;;
71435;SDS011;59251;51.326;12.370;2023-05-17T10:35:17;10.63;;;1.60;;
71435;SDS011;59251;51.326;12.370;2023-05-17T10:37:43;8.68;;;1.25;;
71435;SDS011;59251;51.326;12.370;2023-05-17T10:40:09;11.40;;;1.87;;
71435;SDS011;59251;51.326;12.370;2023-05-17T10:42:38;10.18;;;1.15;;
71435;SDS011;59251;51.326;12.370;2023-05-17T10:45:06;9.68;;;1.27;;
71435;SDS011;59251;51.326;12.370;2023-05-17T10:47:33;6.20;;;1.10;;
71435;SDS011;59251;51.326;12.370;2023-05-17T10:49:59;9.60;;;1.50;;
71435;SDS011;59251;51.326;12.370;2023-05-17T10:52:25;8.93;;;1.60;;
71435;SDS011;59251;51.326;12.370;2023-05-17T10:54:51;8.88;;;1.70;;
71435;SDS011;59251;51.326;12.370;2023-05-17T10:59:58;12.45;;;1.55;;
71435;SDS011;59251;51.326;12.370;2023-05-17T11:02:27;10.55;;;1.42;;
71435;SDS011;59251;51.326;12.370;2023-05-17T11:04:55;8.93;;;1.20;;
71435;SDS011;59251;51.326;12.370;2023-05-17T11:07:26;11.95;;;2.00;;
71435;SDS011;59251;51.326;12.370;2023-05-17T11:12:30;10.35;;;1.77;;
71435;SDS011;59251;51.326;12.370;2023-05-17T11:15:05;8.50;;;1.70;;
71435;SDS011;59251;51.326;12.370;2023-05-17T11:17:33;8.60;;;1.40;;
71435;SDS011;59251;51.326;12.370;2023-05-17T11:20:01;10.82;;;1.45;;
71435;SDS011;59251;51.326;12.370;2023-05-17T11:22:34;11.57;;;1.67;;
71435;SDS011;59251;51.326;12.370;2023-05-17T11:25:04;8.70;;;1.48;;
71435;SDS011;59251;51.326;12.370;2023-05-17T11:27:35;8.20;;;1.37;;
71435;SDS011;59251;51.326;12.370;2023-05-17T11:30:38;8.10;;;1.40;;
71435;SDS011;59251;51.326;12.370;2023-05-17T11:33:01;9.80;;;1.55;;
71435;SDS011;59251;51.326;12.370;2023-05-17T11:35:32;10.02;;;1.25;;
71435;SDS011;59251;51.326;12.370;2023-05-17T11:38:17;8.43;;;1.23;;
71435;SDS011;59251;51.326;12.370;2023-05-17T11:40:45;8.70;;;1.20;;
71435;SDS011;59251;51.326;12.370;2023-05-17T11:43:14;8.95;;;1.70;;
71435;SDS011;59251;51.326;12.370;2023-05-17T11:48:10;9.02;;;1.50;;
71435;SDS011;59251;51.326;12.370;2023-05-17T11:50:37;11.23;;;1.30;;
71435;SDS011;59251;51.326;12.370;2023-05-17T11:53:04;9.23;;;1.13;;
71435;SDS011;59251;51.326;12.370;2023-05-17T11:55:31;8.45;;;1.40;;
71435;SDS011;59251;51.326;12.370;2023-05-17T11:57:58;10.38;;;1.33;;
71435;SDS011;59251;51.326;12.370;2023-05-17T12:00:25;9.45;;;1.35;;
71435;SDS011;59251;51.326;12.370;2023-05-17T12:02:51;9.30;;;1.65;;
71435;SDS011;59251;51.326;12.370;2023-05-17T12:05:19;8.67;;;1.30;;
71435;SDS011;59251;51.326;12.370;2023-05-17T12:07:46;8.95;;;1.55;;
71435;SDS011;59251;51.326;12.370;2023-05-17T12:10:12;8.40;;;1.13;;
71435;SDS011;59251;51.326;12.370;2023-05-17T12:12:39;9.57;;;1.65;;
71435;SDS011;59251;51.326;12.370;2023-05-17T12:15:05;8.32;;;1.20;;
71435;SDS011;59251;51.326;12.370;2023-05-17T12:17:34;11.38;;;1.10;;
71435;SDS011;59251;51.326;12.370;2023-05-17T12:20:08;15.17;;;1.50;;
71435;SDS011;59251;51.326;12.370;2023-05-17T12:22:34;9.98;;;1.20;;
71435;SDS011;59251;51.326;12.370;2023-05-17T12:25:19;10.57;;;1.30;;
71435;SDS011;59251;51.326;12.370;2023-05-17T12:27:49;7.90;;;1.30;;
71435;SDS011;59251;51.326;12.370;2023-05-17T12:30:15;8.90;;;1.33;;
71435;SDS011;59251;51.326;12.370;2023-05-17T12:32:41;9.60;;;1.43;;
71435;SDS011;59251;51.326;12.370;2023-05-17T12:35:06;11.30;;;1.20;;
71435;SDS011;59251;51.326;12.370;2023-05-17T12:37:32;8.07;;;1.13;;
71435;SDS011;59251;51.326;12.370;2023-05-17T12:39:58;8.38;;;1.30;;
71435;SDS011;59251;51.326;12.370;2023-05-17T12:42:25;8.73;;;1.15;;
71435;SDS011;59251;51.326;12.370;2023-05-17T12:44:51;9.80;;;1.57;;
71435;SDS011;59251;51.326;12.370;2023-05-17T12:47:16;8.63;;;1.23;;
71435;SDS011;59251;51.326;12.370;2023-05-17T12:49:53;7.90;;;1.10;;
71435;SDS011;59251;51.326;12.370;2023-05-17T12:52:19;6.82;;;1.20;;
71435;SDS011;59251;51.326;12.370;2023-05-17T12:54:44;11.43;;;1.43;;
71435;SDS011;59251;51.326;12.370;2023-05-17T12:57:13;9.70;;;1.33;;
71435;SDS011;59251;51.326;12.370;2023-05-17T12:59:46;15.07;;;2.20;;
71435;SDS011;59251;51.326;12.370;2023-05-17T13:02:12;7.82;;;1.55;;
71435;SDS011;59251;51.326;12.370;2023-05-17T13:04:38;6.43;;;0.97;;
71435;SDS011;59251;51.326;12.370;2023-05-17T13:07:03;8.80;;;1.10;;
71435;SDS011;59251;51.326;12.370;2023-05-17T13:09:30;11.02;;;1.30;;
71435;SDS011;59251;51.326;12.370;2023-05-17T13:11:57;7.18;;;1.10;;
71435;SDS011;59251;51.326;12.370;2023-05-17T13:14:34;10.53;;;1.33;;
71435;SDS011;59251;51.326;12.370;2023-05-17T13:17:05;9.25;;;1.30;;
71435;SDS011;59251;51.326;12.370;2023-05-17T13:19:32;8.68;;;1.50;;
71435;SDS011;59251;51.326;12.370;2023-05-17T13:21:59;8.50;;;1.10;;
71435;SDS011;59251;51.326;12.370;2023-05-17T13:24:25;8.30;;;1.37;;
71435;SDS011;59251;51.326;12.370;2023-05-17T13:26:52;7.78;;;1.40;;
71435;SDS011;59251;51.326;12.370;2023-05-17T13:29:17;12.38;;;1.55;;
71435;SDS011;59251;51.326;12.370;2023-05-17T13:31:43;9.90;;;1.97;;
71435;SDS011;59251;51.326;12.370;2023-05-17T13:34:08;9.33;;;1.33;;
71435;SDS011;59251;51.326;12.370;2023-05-17T13:36:33;9.27;;;1.30;;
71435;SDS011;59251;51.326;12.370;2023-05-17T13:38:59;9.97;;;1.47;;
71435;SDS011;59251;51.326;12.370;2023-05-17T13:41:26;9.40;;;2.10;;
71435;SDS011;59251;51.326;12.370;2023-05-17T13:43:52;7.55;;;1.10;;
71435;SDS011;59251;51.326;12.370;2023-05-17T13:46:17;10.23;;;1.60;;
71435;SDS011;59251;51.326;12.370;2023-05-17T13:48:43;10.53;;;2.00;;
71435;SDS011;59251;51.326;12.370;2023-05-17T13:51:08;11.07;;;1.80;;
71435;SDS011;59251;51.326;12.370;2023-05-17T13:53:33;7.73;;;1.40;;
71435;SDS011;59251;51.326;12.370;2023-05-17T13:55:59;9.43;;;1.50;;
71435;SDS011;59251;51.326;12.370;2023-05-17T13:58:24;9.07;;;1.40;;
71435;SDS011;59251;51.326;12.370;2023-05-17T14:00:50;9.27;;;1.53;;
71435;SDS011;59251;51.326;12.370;2023-05-17T14:03:16;10.63;;;1.35;;
71435;SDS011;59251;51.326;12.370;2023-05-17T14:05:41;8.03;;;1.33;;
71435;SDS011;59251;51.326;12.370;2023-05-17T14:08:07;9.13;;;1.73;;
71435;SDS011;59251;51.326;12.370;2023-05-17T14:10:33;8.60;;;1.50;;
71435;SDS011;59251;51.326;12.370;2023-05-17T14:12:59;7.30;;;1.57;;
71435;SDS011;59251;51.326;12.370;2023-05-17T14:15:24;10.68;;;1.50;;
71435;SDS011;59251;51.326;12.370;2023-05-17T14:17:52;10.20;;;1.50;;
71435;SDS011;59251;51.326;12.370;2023-05-17T14:20:17;8.57;;;1.57;;
71435;SDS011;59251;51.326;12.370;2023-05-17T14:22:43;9.27;;;1.77;;
71435;SDS011;59251;51.326;12.370;2023-05-17T14:25:08;8.33;;;1.37;;
71435;SDS011;59251;51.326;12.370;2023-05-17T14:27:35;11.27;;;2.00;;
71435;SDS011;59251;51.326;12.370;2023-05-17T14:30:01;9.77;;;1.60;;
71435;SDS011;59251;51.326;12.370;2023-05-17T14:32:26;7.70;;;1.63;;
71435;SDS011;59251;51.326;12.370;2023-05-17T14:34:52;14.63;;;1.50;;
71435;SDS011;59251;51.326;12.370;2023-05-17T14:37:17;10.00;;;1.60;;
71435;SDS011;59251;51.326;12.370;2023-05-17T14:39:43;7.87;;;1.37;;
71435;SDS011;59251;51.326;12.370;2023-05-17T14:42:08;10.07;;;1.90;;
71435;SDS011;59251;51.326;12.370;2023-05-17T14:44:33;7.97;;;1.45;;
71435;SDS011;59251;51.326;12.370;2023-05-17T14:47:02;9.23;;;1.27;;
71435;SDS011;59251;51.326;12.370;2023-05-17T14:49:28;11.77;;;1.80;;